Time;durP1;ratioP1;P1;durP2;ratioP2;P2;SDS_P1;SDS_P2;PMS_P1;PMS_P2;Temp;Humidity;BMP_temperature;BMP_pressure;BME280_temperature;BME280_humidity;BME280_pressure;Samples;Min_cycle;Max_cycle;Signal;HPM_P1;HPM_P2
2021/12/18 00:00:45;;;;;;;;;;;20.00;58.00;;;;;;5013898;28;1957;-69
2021/12/18 00:03:10;;;;;;;;;;;20.00;58.10;;;;;;5013955;28;1319;-70
2021/12/18 00:05:36;;;;;;;;;;;20.00;58.60;;;;;;5014232;28;1313;-70
2021/12/18 00:08:01;;;;;;;;;;;20.00;58.10;;;;;;5013619;28;1363;-70
2021/12/18 00:10:27;;;;;;;;;;;19.90;58.00;;;;;;5006136;28;1312;-70
2021/12/18 00:12:53;;;;;;;;;;;19.90;58.10;;;;;;4994116;28;1349;-71
2021/12/18 00:15:19;;;;;;;;;;;19.90;58.10;;;;;;4994150;28;1381;-71
2021/12/18 00:17:44;;;;;;;;;;;19.90;58.10;;;;;;4994427;28;1351;-70
2021/12/18 00:20:10;;;;;;;;;;;19.90;58.20;;;;;;5004379;28;1907;-70
2021/12/18 00:22:35;;;;;;;;;;;19.90;58.20;;;;;;5013696;28;1405;-71
2021/12/18 00:25:01;;;;;;;;;;;19.90;58.20;;;;;;5013838;28;1256;-70
2021/12/18 00:27:26;;;;;;;;;;;19.90;58.20;;;;;;5013238;28;1063;-70
2021/12/18 00:29:51;;;;;;;;;;;19.90;58.20;;;;;;5013906;28;1308;-71
2021/12/18 00:32:17;;;;;;;;;;;19.90;58.20;;;;;;5013315;28;1354;-71
2021/12/18 00:34:42;;;;;;;;;;;19.90;58.30;;;;;;5013814;28;1320;-71
2021/12/18 00:37:08;;;;;;;;;;;19.90;58.30;;;;;;5013212;28;1276;-71
2021/12/18 00:39:37;;;;;;;;;;;19.80;58.30;;;;;;5013499;28;1961;-72
2021/12/18 00:42:21;;;;;;;;;;;19.80;58.30;;;;;;5013368;28;1270;-70
2021/12/18 00:44:46;;;;;;;;;;;19.80;58.30;;;;;;5013430;28;1264;-70
2021/12/18 00:47:12;;;;;;;;;;;19.90;58.40;;;;;;5013100;28;1335;-71
2021/12/18 00:49:37;;;;;;;;;;;19.80;58.40;;;;;;5013367;28;1325;-71
2021/12/18 00:52:03;;;;;;;;;;;19.80;58.40;;;;;;4995728;28;1284;-70
2021/12/18 00:54:29;;;;;;;;;;;19.80;58.40;;;;;;4996076;28;1275;-71
2021/12/18 00:56:54;;;;;;;;;;;19.80;58.40;;;;;;4983629;28;1187;-71
2021/12/18 00:59:19;;;;;;;;;;;19.80;58.40;;;;;;5010550;28;1952;-72
2021/12/18 01:01:46;;;;;;;;;;;19.80;58.50;;;;;;5013061;28;1384;-70
2021/12/18 01:04:12;;;;;;;;;;;19.80;58.50;;;;;;5013228;28;1341;-71
2021/12/18 01:06:37;;;;;;;;;;;19.80;58.50;;;;;;5012926;28;1323;-71
2021/12/18 01:09:03;;;;;;;;;;;19.80;58.50;;;;;;5008558;28;1386;-71
2021/12/18 01:11:42;;;;;;;;;;;19.80;58.50;;;;;;5012953;28;1312;-71
2021/12/18 01:22:42;;;;;;;;;;;19.80;58.60;;;;;;5013039;28;1391;-71
2021/12/18 01:22:47;;;;;;;;;;;19.80;58.60;;;;;;5016332;28;1321;-71
2021/12/18 01:25:13;;;;;;;;;;;19.80;58.60;;;;;;5017239;28;1336;-71
2021/12/18 01:27:39;;;;;;;;;;;19.70;58.60;;;;;;5016664;28;1365;-71
2021/12/18 01:30:04;;;;;;;;;;;19.70;58.60;;;;;;5017054;28;1160;-70
2021/12/18 01:32:30;;;;;;;;;;;19.70;58.60;;;;;;5017141;28;1469;-71
2021/12/18 01:34:56;;;;;;;;;;;19.70;58.60;;;;;;5016798;28;1379;-71
2021/12/18 01:37:21;;;;;;;;;;;19.70;58.60;;;;;;4998935;28;1073;-71
2021/12/18 01:39:46;;;;;;;;;;;19.70;59.20;;;;;;5000563;28;1955;-71
2021/12/18 01:43:18;;;;;;;;;;;19.70;58.70;;;;;;4997173;28;1291;-72
2021/12/18 01:53:39;;;;;;;;;;;19.70;58.70;;;;;;4987032;28;1441;-70
2021/12/18 01:56:04;;;;;;;;;;;19.70;58.80;;;;;;5013616;28;1325;-71
2021/12/18 01:58:30;;;;;;;;;;;19.70;58.80;;;;;;5016425;28;1265;-71
2021/12/18 02:00:56;;;;;;;;;;;19.60;58.70;;;;;;5016290;28;1899;-70
2021/12/18 02:03:21;;;;;;;;;;;19.70;58.80;;;;;;4998750;28;1284;-70
2021/12/18 02:05:47;;;;;;;;;;;19.60;58.80;;;;;;4998566;28;1016;-71
2021/12/18 02:08:13;;;;;;;;;;;19.60;58.80;;;;;;5007583;28;1264;-70
2021/12/18 02:10:49;;;;;;;;;;;19.60;58.80;;;;;;4998505;28;1320;-70
2021/12/18 02:21:18;;;;;;;;;;;19.60;58.80;;;;;;5008284;28;1918;-71
2021/12/18 02:23:44;;;;;;;;;;;19.60;58.80;;;;;;5016207;28;1387;-71
2021/12/18 02:26:09;;;;;;;;;;;19.60;58.80;;;;;;5015496;28;1268;-70
2021/12/18 02:28:35;;;;;;;;;;;19.60;58.80;;;;;;5015927;28;1225;-71
2021/12/18 02:31:00;;;;;;;;;;;19.60;58.90;;;;;;5016067;28;1267;-71
2021/12/18 02:33:26;;;;;;;;;;;19.60;58.90;;;;;;5015970;28;1350;-70
2021/12/18 02:35:53;;;;;;;;;;;19.60;58.90;;;;;;4998304;28;1265;-70
2021/12/18 02:38:20;;;;;;;;;;;19.60;58.90;;;;;;4998033;28;1263;-70
2021/12/18 02:43:18;;;;;;;;;;;19.60;58.80;;;;;;4993862;28;1325;-70
2021/12/18 02:45:43;;;;;;;;;;;19.60;58.80;;;;;;5003087;28;1141;-71
2021/12/18 02:48:09;;;;;;;;;;;19.60;58.70;;;;;;5013998;28;1196;-70
2021/12/18 02:50:39;;;;;;;;;;;19.70;58.70;;;;;;5004042;28;1092;-70
2021/12/18 02:53:04;;;;;;;;;;;19.70;58.60;;;;;;4993375;28;1358;-69
2021/12/18 02:55:30;;;;;;;;;;;19.80;58.60;;;;;;5007756;28;1073;-69
2021/12/18 02:57:55;;;;;;;;;;;19.80;58.50;;;;;;5015006;28;1260;-70
2021/12/18 03:00:23;;;;;;;;;;;19.80;58.40;;;;;;5015368;28;1906;-70
2021/12/18 03:02:48;;;;;;;;;;;19.80;58.30;;;;;;5015138;28;1328;-71
2021/12/18 03:05:21;;;;;;;;;;;19.90;58.20;;;;;;5015280;28;1327;-71
2021/12/18 03:07:51;;;;;;;;;;;19.90;58.20;;;;;;5014876;28;1224;-70
2021/12/18 03:23:48;;;;;;;;;;;20.00;57.80;;;;;;5015043;28;1373;-70
2021/12/18 03:26:14;;;;;;;;;;;20.00;57.80;;;;;;5014827;28;1335;-70
2021/12/18 03:28:39;;;;;;;;;;;20.00;57.70;;;;;;5014645;28;1268;-69
2021/12/18 03:31:05;;;;;;;;;;;20.00;57.70;;;;;;4997109;28;1302;-72
2021/12/18 03:33:30;;;;;;;;;;;20.00;57.70;;;;;;4995982;28;1366;-71
2021/12/18 03:35:56;;;;;;;;;;;20.10;58.30;;;;;;4994876;28;1339;-69
2021/12/18 03:38:21;;;;;;;;;;;20.00;57.60;;;;;;5013640;28;1132;-69
2021/12/18 03:40:47;;;;;;;;;;;20.10;57.70;;;;;;5002982;28;1952;-71
2021/12/18 03:43:12;;;;;;;;;;;20.10;57.60;;;;;;4994628;28;1349;-69
2021/12/18 03:45:37;;;;;;;;;;;20.10;57.60;;;;;;4984550;28;1364;-71
2021/12/18 03:48:03;;;;;;;;;;;20.10;57.60;;;;;;5012178;28;1264;-70
2021/12/18 03:50:28;;;;;;;;;;;20.10;57.60;;;;;;5014262;28;1264;-70
2021/12/18 03:52:55;;;;;;;;;;;20.10;57.60;;;;;;5013928;28;1391;-71
2021/12/18 03:55:21;;;;;;;;;;;20.10;57.60;;;;;;5014294;28;1135;-71
2021/12/18 03:57:46;;;;;;;;;;;20.10;57.60;;;;;;5013831;28;1318;-71
2021/12/18 04:00:12;;;;;;;;;;;20.10;57.50;;;;;;4996828;28;1902;-71
2021/12/18 04:02:38;;;;;;;;;;;20.10;57.60;;;;;;4996185;28;1346;-71
2021/12/18 04:05:03;;;;;;;;;;;20.10;57.50;;;;;;4996709;28;1310;-70
2021/12/18 04:07:29;;;;;;;;;;;20.10;57.50;;;;;;4995954;28;1309;-70
2021/12/18 04:09:54;;;;;;;;;;;20.10;58.10;;;;;;5009972;28;1160;-70
2021/12/18 04:12:20;;;;;;;;;;;20.10;57.50;;;;;;5013669;28;1312;-70
2021/12/18 04:14:45;;;;;;;;;;;20.10;57.50;;;;;;5013948;28;1064;-70
2021/12/18 04:17:11;;;;;;;;;;;20.10;57.50;;;;;;5013246;28;1092;-70
2021/12/18 04:19:36;;;;;;;;;;;20.10;57.50;;;;;;5008178;28;1980;-70
2021/12/18 04:22:02;;;;;;;;;;;20.10;57.50;;;;;;5011324;28;1286;-70
2021/12/18 04:24:27;;;;;;;;;;;20.10;57.50;;;;;;5014043;28;1143;-70
2021/12/18 04:26:53;;;;;;;;;;;20.10;57.50;;;;;;5013234;28;1132;-70
2021/12/18 04:29:18;;;;;;;;;;;20.10;57.40;;;;;;5013852;28;1120;-71
2021/12/18 04:31:44;;;;;;;;;;;20.10;57.40;;;;;;5009079;28;1382;-70
2021/12/18 04:34:09;;;;;;;;;;;20.10;57.40;;;;;;4994292;28;1288;-70
2021/12/18 04:36:35;;;;;;;;;;;20.20;57.40;;;;;;4993556;28;1272;-70
2021/12/18 04:39:00;;;;;;;;;;;20.20;57.40;;;;;;4983432;28;1968;-70
2021/12/18 04:41:38;;;;;;;;;;;20.20;57.40;;;;;;5009458;28;1380;-70
2021/12/18 04:44:04;;;;;;;;;;;20.20;57.40;;;;;;5001833;28;1296;-70
2021/12/18 04:46:29;;;;;;;;;;;20.20;57.40;;;;;;4993728;28;1155;-70
2021/12/18 04:48:55;;;;;;;;;;;20.20;57.40;;;;;;4993810;28;1080;-70
2021/12/18 04:51:20;;;;;;;;;;;20.20;57.40;;;;;;4993783;28;1136;-70
2021/12/18 04:53:46;;;;;;;;;;;20.20;57.40;;;;;;4993537;28;1410;-70
2021/12/18 04:56:11;;;;;;;;;;;20.20;57.40;;;;;;4993378;28;1245;-70
2021/12/18 04:58:36;;;;;;;;;;;20.20;57.40;;;;;;4993545;28;1273;-71
2021/12/18 05:01:02;;;;;;;;;;;20.20;57.40;;;;;;4992999;28;1899;-70
2021/12/18 05:03:27;;;;;;;;;;;20.20;57.40;;;;;;4995565;28;1312;-71
2021/12/18 05:05:53;;;;;;;;;;;20.20;57.30;;;;;;5012987;28;1194;-70
2021/12/18 05:08:18;;;;;;;;;;;20.20;57.30;;;;;;5010469;28;1064;-70
2021/12/18 05:10:44;;;;;;;;;;;20.20;57.30;;;;;;5010855;28;1056;-71
2021/12/18 05:13:09;;;;;;;;;;;20.20;57.30;;;;;;5013197;28;1259;-69
2021/12/18 05:15:35;;;;;;;;;;;20.20;57.30;;;;;;5013165;28;1305;-72
2021/12/18 05:18:00;;;;;;;;;;;20.20;57.30;;;;;;4994979;28;1088;-71
2021/12/18 05:20:25;;;;;;;;;;;20.20;57.30;;;;;;5008630;28;1910;-72
2021/12/18 05:22:51;;;;;;;;;;;20.20;57.30;;;;;;5012751;28;1216;-72
2021/12/18 05:25:16;;;;;;;;;;;20.20;57.30;;;;;;5012978;28;1383;-71
2021/12/18 05:27:42;;;;;;;;;;;20.20;57.30;;;;;;5012619;28;1013;-72
2021/12/18 05:30:08;;;;;;;;;;;20.20;57.30;;;;;;5012677;28;1100;-72
2021/12/18 05:32:33;;;;;;;;;;;20.20;57.30;;;;;;4995261;28;1366;-70
2021/12/18 05:34:59;;;;;;;;;;;20.20;57.30;;;;;;4992720;28;1149;-70
2021/12/18 05:39:49;;;;;;;;;;;20.20;57.30;;;;;;5008623;28;1894;-72
2021/12/18 05:42:15;;;;;;;;;;;20.20;57.30;;;;;;5012750;28;1265;-70
2021/12/18 05:44:40;;;;;;;;;;;20.20;57.30;;;;;;5011152;28;1206;-72
2021/12/18 05:47:06;;;;;;;;;;;20.20;57.30;;;;;;5011457;28;1310;-72
2021/12/18 05:49:31;;;;;;;;;;;20.20;57.20;;;;;;5012769;28;1687;-70
2021/12/18 05:51:57;;;;;;;;;;;20.20;57.20;;;;;;4995010;28;1346;-72
2021/12/18 05:54:22;;;;;;;;;;;20.20;57.20;;;;;;4998136;28;1215;-72
2021/12/18 05:56:47;;;;;;;;;;;20.20;57.30;;;;;;4992854;28;1092;-70
2021/12/18 05:59:13;;;;;;;;;;;20.20;57.20;;;;;;4991468;28;1954;-72
2021/12/18 06:01:38;;;;;;;;;;;20.20;57.20;;;;;;4985290;28;1366;-71
2021/12/18 06:04:04;;;;;;;;;;;20.20;57.20;;;;;;5012556;28;1137;-71
2021/12/18 06:06:30;;;;;;;;;;;20.30;57.30;;;;;;5012388;28;1143;-72
2021/12/18 06:08:56;;;;;;;;;;;20.20;57.20;;;;;;5010863;28;1280;-71
2021/12/18 06:11:22;;;;;;;;;;;20.30;57.30;;;;;;5016201;28;1077;-72
2021/12/18 06:13:49;;;;;;;;;;;20.20;57.20;;;;;;5015874;28;1402;-71
2021/12/18 06:16:14;;;;;;;;;;;20.20;57.20;;;;;;5015959;28;1355;-70
2021/12/18 06:18:40;;;;;;;;;;;20.20;57.20;;;;;;4996094;28;1065;-72
2021/12/18 06:21:06;;;;;;;;;;;20.20;57.20;;;;;;5014152;28;1906;-72
2021/12/18 06:23:31;;;;;;;;;;;20.20;57.20;;;;;;4996164;28;1293;-72
2021/12/18 06:25:57;;;;;;;;;;;20.20;57.20;;;;;;4996214;28;1667;-72
2021/12/18 06:28:22;;;;;;;;;;;20.20;57.20;;;;;;4996133;28;1261;-72
2021/12/18 06:30:49;;;;;;;;;;;20.30;57.30;;;;;;4996254;28;1121;-72
2021/12/18 06:33:14;;;;;;;;;;;20.30;57.20;;;;;;4996200;28;1378;-72
2021/12/18 06:35:40;;;;;;;;;;;20.20;57.20;;;;;;4983521;28;1348;-72
2021/12/18 06:38:05;;;;;;;;;;;20.20;57.20;;;;;;5010704;28;1356;-73
2021/12/18 06:40:31;;;;;;;;;;;20.20;57.20;;;;;;5015658;28;1954;-72
2021/12/18 06:42:56;;;;;;;;;;;20.20;57.20;;;;;;5015285;28;1364;-72
2021/12/18 06:45:22;;;;;;;;;;;20.20;57.20;;;;;;5015637;28;1346;-72
2021/12/18 06:47:47;;;;;;;;;;;20.20;57.20;;;;;;5015250;28;1111;-72
2021/12/18 06:50:12;;;;;;;;;;;20.30;57.20;;;;;;4998062;28;1321;-72
2021/12/18 06:52:38;;;;;;;;;;;20.20;57.20;;;;;;5000865;28;1277;-72
2021/12/18 06:55:04;;;;;;;;;;;20.30;57.20;;;;;;4997354;28;1811;-71
2021/12/18 06:57:29;;;;;;;;;;;20.30;57.20;;;;;;4989758;28;2264;-71
2021/12/18 06:59:54;;;;;;;;;;;20.30;57.20;;;;;;5005310;28;1895;-70
2021/12/18 07:02:20;;;;;;;;;;;20.30;57.20;;;;;;5010685;28;1317;-70
2021/12/18 07:04:45;;;;;;;;;;;20.30;57.20;;;;;;5015276;28;1343;-71
2021/12/18 07:07:11;;;;;;;;;;;20.30;57.20;;;;;;4999625;28;1265;-71
2021/12/18 07:09:36;;;;;;;;;;;20.20;57.20;;;;;;4991241;28;1108;-70
2021/12/18 07:12:02;;;;;;;;;;;20.30;57.30;;;;;;4999866;28;1291;-71
2021/12/18 07:14:27;;;;;;;;;;;20.20;57.20;;;;;;4983323;28;1338;-70
2021/12/18 07:16:53;;;;;;;;;;;20.30;57.30;;;;;;5005560;28;1632;-72
2021/12/18 07:19:18;;;;;;;;;;;20.30;57.20;;;;;;4985369;28;1967;-72
2021/12/18 07:21:44;;;;;;;;;;;20.30;57.20;;;;;;5010134;28;1391;-72
2021/12/18 07:24:09;;;;;;;;;;;20.30;57.20;;;;;;4994782;28;1296;-72
2021/12/18 07:26:35;;;;;;;;;;;20.30;57.20;;;;;;4994990;28;1046;-73
2021/12/18 07:29:00;;;;;;;;;;;20.30;57.20;;;;;;5012679;28;1339;-71
2021/12/18 07:31:26;;;;;;;;;;;20.30;57.20;;;;;;4996090;28;1322;-71
2021/12/18 07:33:51;;;;;;;;;;;20.30;57.20;;;;;;5013577;28;1149;-69
2021/12/18 07:36:17;;;;;;;;;;;20.20;57.20;;;;;;5006014;28;1469;-69
2021/12/18 07:38:43;;;;;;;;;;;20.20;57.20;;;;;;4981045;28;1332;-71
2021/12/18 07:41:09;;;;;;;;;;;20.30;57.20;;;;;;5005873;28;1961;-68
2021/12/18 07:43:34;;;;;;;;;;;20.30;57.20;;;;;;4994105;28;1330;-72
2021/12/18 07:46:01;;;;;;;;;;;20.20;57.20;;;;;;4993945;28;1405;-72
2021/12/18 07:48:26;;;;;;;;;;;20.30;57.20;;;;;;4993662;28;1048;-73
2021/12/18 07:50:52;;;;;;;;;;;20.20;57.10;;;;;;4986486;28;1384;-71
2021/12/18 07:53:17;;;;;;;;;;;20.30;57.20;;;;;;5014289;28;1292;-71
2021/12/18 07:55:43;;;;;;;;;;;20.30;57.20;;;;;;5013934;28;1308;-70
2021/12/18 07:58:08;;;;;;;;;;;20.30;57.20;;;;;;5014209;28;1416;-72
2021/12/18 08:00:33;;;;;;;;;;;20.30;57.10;;;;;;5014083;28;1919;-72
2021/12/18 08:02:59;;;;;;;;;;;20.40;57.10;;;;;;4996461;28;1225;-72
2021/12/18 08:05:24;;;;;;;;;;;20.40;57.00;;;;;;5000199;28;1256;-71
2021/12/18 08:07:50;;;;;;;;;;;20.50;56.80;;;;;;4980755;28;1306;-72
2021/12/18 08:10:15;;;;;;;;;;;20.60;56.70;;;;;;5012780;28;1183;-72
2021/12/18 08:12:41;;;;;;;;;;;20.70;56.50;;;;;;5013614;28;1312;-71
2021/12/18 08:15:07;;;;;;;;;;;20.80;56.30;;;;;;4995474;28;1437;-72
2021/12/18 08:17:32;;;;;;;;;;;20.80;56.20;;;;;;4980670;28;1366;-70
2021/12/18 08:19:58;;;;;;;;;;;20.90;56.00;;;;;;5000327;28;1902;-72
2021/12/18 08:22:23;;;;;;;;;;;21.00;55.90;;;;;;4996476;28;1281;-72
2021/12/18 08:24:49;;;;;;;;;;;21.00;55.80;;;;;;4999939;28;1291;-71
2021/12/18 08:27:14;;;;;;;;;;;21.10;55.60;;;;;;4993866;28;1281;-72
2021/12/18 08:29:40;;;;;;;;;;;21.10;55.50;;;;;;4993707;28;1354;-72
2021/12/18 08:32:05;;;;;;;;;;;21.10;55.40;;;;;;4994125;28;1350;-71
2021/12/18 08:34:31;;;;;;;;;;;21.20;55.40;;;;;;4988168;28;1332;-70
2021/12/18 08:36:56;;;;;;;;;;;21.20;55.20;;;;;;4995911;28;1177;-71
2021/12/18 08:39:21;;;;;;;;;;;21.20;55.20;;;;;;4999549;28;1961;-71
2021/12/18 08:41:47;;;;;;;;;;;21.20;55.10;;;;;;4993560;28;1331;-70
2021/12/18 08:44:13;;;;;;;;;;;21.30;55.20;;;;;;4993766;28;1441;-70
2021/12/18 08:46:38;;;;;;;;;;;21.30;55.10;;;;;;4993561;28;1277;-71
2021/12/18 08:49:03;;;;;;;;;;;21.30;55.10;;;;;;4990233;28;1148;-72
2021/12/18 08:51:29;;;;;;;;;;;21.20;55.10;;;;;;5006111;28;1065;-71
2021/12/18 08:53:54;;;;;;;;;;;21.20;55.10;;;;;;4992381;28;1370;-71
2021/12/18 08:56:20;;;;;;;;;;;21.30;55.10;;;;;;5000164;28;1123;-72
2021/12/18 08:58:45;;;;;;;;;;;21.30;55.10;;;;;;5012933;28;1319;-71
2021/12/18 09:01:11;;;;;;;;;;;21.30;55.10;;;;;;4999609;28;1895;-71
2021/12/18 09:03:36;;;;;;;;;;;21.20;55.10;;;;;;5013082;28;1382;-71
2021/12/18 09:06:01;;;;;;;;;;;21.20;55.10;;;;;;5012971;28;1387;-70
2021/12/18 09:08:27;;;;;;;;;;;21.20;55.10;;;;;;5009450;28;1371;-70
2021/12/18 09:10:52;;;;;;;;;;;21.30;55.20;;;;;;5011926;28;1270;-71
2021/12/18 09:13:18;;;;;;;;;;;21.20;55.10;;;;;;5012927;28;1252;-70
2021/12/18 09:15:43;;;;;;;;;;;21.20;55.20;;;;;;5012935;28;1125;-70
2021/12/18 09:18:09;;;;;;;;;;;21.20;55.20;;;;;;5012922;28;1476;-71
2021/12/18 09:20:34;;;;;;;;;;;21.20;55.20;;;;;;5004054;28;1910;-70
2021/12/18 09:23:01;;;;;;;;;;;21.20;55.30;;;;;;5012974;28;1470;-70
2021/12/18 09:25:26;;;;;;;;;;;21.20;55.30;;;;;;5008702;28;1288;-70
2021/12/18 09:27:51;;;;;;;;;;;21.20;55.30;;;;;;4993137;28;1300;-71
2021/12/18 09:30:17;;;;;;;;;;;21.20;55.30;;;;;;4993465;28;1372;-73
2021/12/18 09:32:42;;;;;;;;;;;21.20;55.30;;;;;;4993229;28;1274;-70
2021/12/18 09:35:08;;;;;;;;;;;21.20;55.40;;;;;;4993381;28;1333;-71
2021/12/18 09:37:33;;;;;;;;;;;21.10;55.40;;;;;;4993160;28;1273;-71
2021/12/18 09:39:59;;;;;;;;;;;21.10;55.40;;;;;;4989834;28;1891;-70
2021/12/18 09:42:24;;;;;;;;;;;21.10;55.40;;;;;;5005450;28;1294;-71
2021/12/18 09:44:50;;;;;;;;;;;21.10;55.50;;;;;;4999254;28;1408;-71
2021/12/18 09:47:15;;;;;;;;;;;21.10;55.50;;;;;;4999012;28;1267;-71
2021/12/18 09:49:41;;;;;;;;;;;21.10;55.50;;;;;;4999470;28;1393;-70
2021/12/18 09:52:06;;;;;;;;;;;21.10;55.50;;;;;;4986948;28;1691;-71
2021/12/18 09:54:32;;;;;;;;;;;21.10;55.60;;;;;;5013829;28;1317;-72
2021/12/18 09:56:57;;;;;;;;;;;21.10;55.60;;;;;;5016353;28;1264;-70
2021/12/18 09:59:22;;;;;;;;;;;21.10;55.60;;;;;;5016360;28;1898;-70
2021/12/18 10:01:48;;;;;;;;;;;21.10;55.60;;;;;;5016344;28;1368;-70
2021/12/18 10:04:24;;;;;;;;;;;21.10;55.60;;;;;;5016398;28;1391;-70
2021/12/18 10:06:49;;;;;;;;;;;21.10;55.60;;;;;;5016197;28;1283;-70
2021/12/18 10:09:17;;;;;;;;;;;21.10;55.70;;;;;;5011635;28;1071;-70
2021/12/18 10:11:49;;;;;;;;;;;21.10;55.70;;;;;;5003119;28;1194;-71
2021/12/18 10:14:14;;;;;;;;;;;21.10;55.80;;;;;;5002163;28;1231;-70
2021/12/18 10:16:44;;;;;;;;;;;21.00;55.70;;;;;;5014727;28;1344;-70
2021/12/18 10:19:22;;;;;;;;;;;21.00;55.70;;;;;;5009675;28;1910;-70
2021/12/18 10:21:55;;;;;;;;;;;21.00;55.80;;;;;;5012808;28;1218;-71
2021/12/18 10:24:20;;;;;;;;;;;21.00;55.80;;;;;;5004947;28;1297;-71
2021/12/18 10:26:46;;;;;;;;;;;21.00;55.80;;;;;;5014477;28;1284;-72
2021/12/18 10:29:30;;;;;;;;;;;21.00;55.80;;;;;;5014760;28;1748;-72
2021/12/18 10:31:56;;;;;;;;;;;21.00;55.90;;;;;;5015032;28;1374;-70
2021/12/18 10:34:23;;;;;;;;;;;21.00;55.90;;;;;;4996976;28;1990;-70
2021/12/18 10:37:07;;;;;;;;;;;21.00;55.90;;;;;;4995178;28;1437;-71
2021/12/18 10:39:32;;;;;;;;;;;20.90;55.90;;;;;;5008056;28;1919;-71
2021/12/18 10:41:57;;;;;;;;;;;20.90;55.90;;;;;;4995068;28;1346;-71
2021/12/18 10:44:23;;;;;;;;;;;20.90;56.00;;;;;;4990614;28;1298;-71
2021/12/18 10:46:48;;;;;;;;;;;20.90;56.00;;;;;;5014197;28;1295;-70
2021/12/18 10:49:15;;;;;;;;;;;20.90;56.00;;;;;;4995267;28;1331;-71
2021/12/18 10:51:40;;;;;;;;;;;20.90;56.00;;;;;;4982189;28;1306;-70
2021/12/18 10:54:06;;;;;;;;;;;20.90;56.10;;;;;;5006379;28;1388;-71
2021/12/18 10:56:38;;;;;;;;;;;20.90;56.10;;;;;;4994589;28;1064;-70
2021/12/18 10:59:04;;;;;;;;;;;20.90;56.10;;;;;;4994518;28;1264;-70
2021/12/18 11:01:29;;;;;;;;;;;20.90;56.10;;;;;;5003146;28;1905;-70
2021/12/18 11:03:55;;;;;;;;;;;20.90;56.10;;;;;;4994882;28;1340;-71
2021/12/18 11:06:24;;;;;;;;;;;20.90;56.20;;;;;;4982050;28;1393;-70
2021/12/18 11:09:00;;;;;;;;;;;20.90;56.20;;;;;;5005266;28;1288;-70
2021/12/18 11:14:03;;;;;;;;;;;20.90;56.10;;;;;;4992624;28;1383;-69
2021/12/18 11:16:28;;;;;;;;;;;20.90;56.00;;;;;;5005550;28;1348;-70
2021/12/18 11:18:54;;;;;;;;;;;20.90;56.00;;;;;;4996580;28;2287;-71
2021/12/18 11:21:19;;;;;;;;;;;21.00;56.00;;;;;;5007002;28;1963;-71
2021/12/18 11:23:48;;;;;;;;;;;21.00;56.00;;;;;;5013474;28;2124;-69
2021/12/18 11:26:14;;;;;;;;;;;21.00;55.90;;;;;;5005604;28;1131;-70
2021/12/18 11:28:41;;;;;;;;;;;21.00;55.90;;;;;;5002753;28;1199;-70
2021/12/18 11:31:07;;;;;;;;;;;21.00;55.90;;;;;;5000636;28;1150;-69
2021/12/18 11:33:32;;;;;;;;;;;21.00;55.80;;;;;;5012278;28;1302;-69
2021/12/18 11:36:00;;;;;;;;;;;21.00;55.80;;;;;;4996982;28;1281;-70
2021/12/18 11:38:25;;;;;;;;;;;21.00;55.80;;;;;;4996421;28;1355;-69
2021/12/18 11:40:50;;;;;;;;;;;21.00;55.80;;;;;;5008957;28;1954;-69
2021/12/18 11:43:37;;;;;;;;;;;21.10;55.80;;;;;;5013240;28;1289;-70
2021/12/18 11:46:23;;;;;;;;;;;21.10;55.80;;;;;;4995750;28;1279;-70
2021/12/18 11:48:52;;;;;;;;;;;21.10;55.80;;;;;;4994882;28;1314;-69
2021/12/18 11:51:17;;;;;;;;;;;21.00;55.80;;;;;;4994820;28;1315;-70
2021/12/18 11:53:43;;;;;;;;;;;21.00;55.80;;;;;;4995158;28;1292;-70
2021/12/18 11:56:08;;;;;;;;;;;21.00;55.90;;;;;;4991123;28;1273;-71
2021/12/18 11:58:34;;;;;;;;;;;21.00;55.80;;;;;;5005476;28;1366;-70
2021/12/18 12:01:02;;;;;;;;;;;21.00;55.80;;;;;;4996752;28;1969;-70
2021/12/18 12:03:27;;;;;;;;;;;21.00;55.80;;;;;;5014207;28;1289;-69
2021/12/18 12:05:53;;;;;;;;;;;21.00;55.80;;;;;;5013144;28;1313;-70
2021/12/18 12:08:37;;;;;;;;;;;21.00;55.90;;;;;;4993989;28;1285;-70
2021/12/18 12:11:15;;;;;;;;;;;21.00;55.90;;;;;;5014195;28;1060;-70
2021/12/18 12:13:54;;;;;;;;;;;21.00;55.90;;;;;;4995157;28;1440;-70
2021/12/18 12:16:40;;;;;;;;;;;21.00;55.90;;;;;;4994061;28;1448;-70
2021/12/18 12:19:05;;;;;;;;;;;21.00;55.90;;;;;;5013125;28;1889;-70
2021/12/18 12:21:38;;;;;;;;;;;21.00;55.90;;;;;;5006882;28;1967;-70
2021/12/18 12:24:03;;;;;;;;;;;21.00;56.00;;;;;;5002249;28;1104;-71
2021/12/18 12:26:28;;;;;;;;;;;21.00;56.00;;;;;;5008047;28;1455;-70
2021/12/18 12:28:54;;;;;;;;;;;21.00;56.00;;;;;;4996025;28;1136;-70
2021/12/18 12:31:19;;;;;;;;;;;21.00;56.00;;;;;;4999944;28;1073;-71
2021/12/18 12:33:49;;;;;;;;;;;21.00;56.00;;;;;;4980304;28;1208;-70
2021/12/18 12:36:25;;;;;;;;;;;21.00;56.00;;;;;;5005693;28;1131;-71
2021/12/18 12:38:57;;;;;;;;;;;21.00;56.30;;;;;;4982030;28;1108;-70
2021/12/18 12:41:23;;;;;;;;;;;21.00;56.00;;;;;;5009750;28;1902;-70
2021/12/18 12:43:49;;;;;;;;;;;21.00;56.00;;;;;;5013857;28;1196;-70
2021/12/18 12:46:18;;;;;;;;;;;21.00;55.90;;;;;;5011535;28;1965;-70
2021/12/18 12:49:00;;;;;;;;;;;21.00;55.90;;;;;;5008212;28;1084;-70
2021/12/18 12:51:25;;;;;;;;;;;21.00;55.90;;;;;;5004486;28;1116;-70
2021/12/18 12:53:51;;;;;;;;;;;21.00;55.90;;;;;;5012891;28;1213;-69
2021/12/18 12:56:18;;;;;;;;;;;21.00;56.00;;;;;;5013196;28;1159;-71
2021/12/18 12:58:44;;;;;;;;;;;21.00;55.90;;;;;;4992754;28;1384;-69
2021/12/18 13:01:09;;;;;;;;;;;21.00;55.90;;;;;;5011079;28;1906;-69
2021/12/18 13:03:44;;;;;;;;;;;21.00;55.90;;;;;;5013174;28;1291;-70
2021/12/18 13:06:11;;;;;;;;;;;21.00;55.90;;;;;;4995399;28;1133;-69
2021/12/18 13:08:37;;;;;;;;;;;21.00;55.90;;;;;;4995511;28;1105;-70
2021/12/18 13:11:03;;;;;;;;;;;21.00;55.90;;;;;;4995635;28;1252;-70
2021/12/18 13:13:30;;;;;;;;;;;21.00;56.00;;;;;;4995143;28;1326;-70
2021/12/18 13:15:58;;;;;;;;;;;21.00;55.90;;;;;;4993140;28;1343;-70
2021/12/18 13:18:25;;;;;;;;;;;21.00;55.90;;;;;;4992911;28;1305;-70
2021/12/18 13:20:55;;;;;;;;;;;21.00;56.00;;;;;;4991720;28;1918;-70
2021/12/18 13:23:40;;;;;;;;;;;21.00;55.90;;;;;;4994819;28;1391;-70
2021/12/18 13:26:06;;;;;;;;;;;21.00;56.00;;;;;;4993108;28;1224;-70
2021/12/18 13:28:32;;;;;;;;;;;21.00;56.00;;;;;;5001236;28;1640;-71
2021/12/18 13:30:57;;;;;;;;;;;21.00;56.00;;;;;;5011460;28;1300;-70
2021/12/18 13:33:23;;;;;;;;;;;21.00;56.00;;;;;;4989670;28;1721;-70
2021/12/18 13:35:53;;;;;;;;;;;21.00;56.00;;;;;;5011095;28;1407;-71
2021/12/18 13:38:18;;;;;;;;;;;21.00;56.00;;;;;;5012612;28;1332;-71
2021/12/18 13:40:45;;;;;;;;;;;21.00;56.00;;;;;;5000997;28;1910;-71
2021/12/18 13:43:10;;;;;;;;;;;21.00;56.00;;;;;;4988584;28;1378;-70
2021/12/18 13:45:55;;;;;;;;;;;21.00;56.00;;;;;;5003513;28;1097;-72
2021/12/18 13:48:21;;;;;;;;;;;21.00;56.10;;;;;;4994949;28;1400;-71
2021/12/18 13:51:03;;;;;;;;;;;21.00;56.10;;;;;;4995167;28;1289;-71
2021/12/18 13:53:29;;;;;;;;;;;21.00;56.10;;;;;;5012406;28;1355;-70
2021/12/18 13:55:55;;;;;;;;;;;21.00;56.70;;;;;;4997439;28;1301;-70
2021/12/18 13:58:22;;;;;;;;;;;21.00;56.10;;;;;;4992764;28;1287;-70
2021/12/18 14:00:52;;;;;;;;;;;20.90;56.10;;;;;;4995913;28;1890;-71
2021/12/18 14:03:21;;;;;;;;;;;20.90;56.10;;;;;;5012550;28;1457;-70
2021/12/18 14:05:46;;;;;;;;;;;20.90;56.10;;;;;;5012133;28;1269;-70
2021/12/18 14:08:12;;;;;;;;;;;20.90;56.20;;;;;;4993244;28;1325;-69
2021/12/18 14:10:38;;;;;;;;;;;20.90;56.20;;;;;;5008071;28;1202;-69
2021/12/18 14:13:05;;;;;;;;;;;20.90;56.20;;;;;;4992593;28;1302;-70
2021/12/18 14:15:30;;;;;;;;;;;20.90;56.20;;;;;;4993353;28;1107;-71
2021/12/18 14:18:00;;;;;;;;;;;20.90;56.20;;;;;;4992415;28;1276;-70
2021/12/18 14:20:25;;;;;;;;;;;20.90;56.20;;;;;;5005031;28;1981;-70
2021/12/18 14:22:53;;;;;;;;;;;20.90;56.30;;;;;;5012781;28;1363;-71
2021/12/18 14:25:18;;;;;;;;;;;20.90;56.20;;;;;;5011983;28;1197;-70
2021/12/18 14:27:45;;;;;;;;;;;20.90;56.30;;;;;;4988549;28;2374;-70
2021/12/18 14:30:12;;;;;;;;;;;20.90;56.30;;;;;;4998891;28;2749;-68
2021/12/18 14:32:39;;;;;;;;;;;20.90;56.30;;;;;;4998413;28;1375;-69
2021/12/18 14:35:05;;;;;;;;;;;20.80;56.30;;;;;;4998824;28;1351;-67
2021/12/18 14:37:30;;;;;;;;;;;20.80;56.30;;;;;;5006680;28;1053;-68
2021/12/18 14:39:56;;;;;;;;;;;20.80;56.30;;;;;;5009699;28;1906;-69
2021/12/18 14:42:34;;;;;;;;;;;20.80;56.30;;;;;;4986286;28;1680;-68
2021/12/18 14:45:04;;;;;;;;;;;20.80;56.40;;;;;;5015528;28;1409;-69
2021/12/18 14:47:30;;;;;;;;;;;20.80;56.40;;;;;;5004411;28;1967;-69
2021/12/18 14:49:55;;;;;;;;;;;20.80;56.40;;;;;;5011567;28;1978;-68
2021/12/18 14:52:21;;;;;;;;;;;20.80;56.40;;;;;;5004096;28;1369;-70
2021/12/18 14:54:50;;;;;;;;;;;20.80;56.40;;;;;;5005728;28;1081;-71
2021/12/18 14:57:17;;;;;;;;;;;20.80;56.40;;;;;;5000434;28;1146;-69
2021/12/18 14:59:42;;;;;;;;;;;20.80;56.40;;;;;;4995362;28;1903;-69
2021/12/18 15:02:08;;;;;;;;;;;20.80;56.50;;;;;;5009409;28;1351;-68
2021/12/18 15:04:33;;;;;;;;;;;20.80;56.50;;;;;;5006454;28;1076;-71
2021/12/18 15:06:59;;;;;;;;;;;20.80;56.50;;;;;;5007411;28;1085;-70
2021/12/18 15:09:25;;;;;;;;;;;20.80;56.50;;;;;;5010385;28;1137;-69
2021/12/18 15:11:50;;;;;;;;;;;20.80;56.50;;;;;;5014441;28;1335;-68